createdAt,value
2022-08-14T00:00:41.180Z,99219.13
2022-08-14T00:10:50.524Z,99209.23
2022-08-14T00:19:52.287Z,99200.67
2022-08-14T00:29:27.073Z,99183.73
2022-08-14T00:39:01.482Z,99183.44
2022-08-14T00:48:36.691Z,99182.23
2022-08-14T00:58:08.443Z,99181.70
2022-08-14T01:07:47.529Z,99178.21
2022-08-14T01:17:17.484Z,99179.55
2022-08-14T01:26:53.596Z,99164.22
2022-08-14T01:36:26.853Z,99141.22
2022-08-14T01:46:06.110Z,99123.41
2022-08-14T01:55:36.551Z,99100.95
2022-08-14T02:05:11.287Z,99071.47
2022-08-14T02:14:50.893Z,99076.91
2022-08-14T02:24:38.572Z,99081.08
2022-08-14T02:33:55.377Z,99081.57
2022-08-14T02:43:36.883Z,99056.37
2022-08-14T02:53:05.898Z,99071.70
2022-08-14T03:02:49.330Z,99062.84
2022-08-14T03:12:17.740Z,99057.41
2022-08-14T03:21:46.126Z,99054.33
2022-08-14T03:31:20.670Z,99062.02
2022-08-14T03:40:56.969Z,99063.05
2022-08-14T03:50:31.232Z,99048.88
2022-08-14T04:00:03.380Z,99054.27
2022-08-14T04:09:37.968Z,99044.30
2022-08-14T04:19:12.425Z,99027.32
2022-08-14T04:29:01.832Z,99021.94
2022-08-14T04:38:36.244Z,99020.72
2022-08-14T04:47:58.649Z,99006.69
2022-08-14T04:57:31.245Z,99009.64
2022-08-14T05:07:07.780Z,99015.59
2022-08-14T05:16:40.559Z,99019.97
2022-08-14T05:26:14.987Z,99007.00
2022-08-14T05:35:52.147Z,99009.03
2022-08-14T05:45:24.740Z,99003.09
2022-08-14T05:54:59.862Z,99009.74
2022-08-14T06:04:34.901Z,99014.09
2022-08-14T06:14:12.551Z,99009.86
2022-08-14T06:23:48.768Z,99003.04
2022-08-14T06:33:20.822Z,98983.17
2022-08-14T06:42:53.855Z,98974.91
2022-08-14T06:52:29.370Z,98970.48
2022-08-14T06:53:33.256Z,98973.73
2022-08-14T07:03:06.901Z,98953.21
2022-08-14T07:04:12.943Z,98951.08
2022-08-14T07:05:16.908Z,98949.64
2022-08-14T07:06:21.565Z,98951.88
2022-08-14T07:07:21.510Z,98945.72
2022-08-14T07:16:53.947Z,98938.07
2022-08-14T07:17:57.189Z,98940.98
2022-08-14T07:18:59.013Z,98940.60
2022-08-14T07:20:03.115Z,98945.96
2022-08-14T07:29:35.281Z,98943.62
2022-08-14T07:30:37.824Z,98943.34
2022-08-14T07:31:40.337Z,98941.44
2022-08-14T07:32:44.488Z,98943.38
2022-08-14T07:33:49.919Z,98939.28
2022-08-14T07:34:52.486Z,98943.30
2022-08-14T07:35:58.060Z,98942.85
2022-08-14T07:37:00.923Z,98941.20
2022-08-14T07:38:04.380Z,98945.09
2022-08-14T07:39:12.145Z,98941.58
2022-08-14T07:40:09.416Z,98947.30
2022-08-14T07:49:44.228Z,98961.86
2022-08-14T07:50:46.647Z,98965.78
2022-08-14T07:51:50.629Z,98968.32
2022-08-14T07:52:53.346Z,98966.67
2022-08-14T07:53:56.971Z,98964.25
2022-08-14T07:54:59.789Z,98963.69
2022-08-14T07:56:08.869Z,98962.72
2022-08-14T07:57:12.430Z,98968.95
2022-08-14T07:58:21.244Z,98970.75
2022-08-14T07:59:11.032Z,98974.33
2022-08-14T08:00:29.857Z,98971.30
2022-08-14T08:01:17.523Z,98975.81
2022-08-14T08:02:21.861Z,98969.88
2022-08-14T08:03:24.096Z,98970.19
2022-08-14T08:04:26.878Z,98973.59
2022-08-14T08:05:29.040Z,98972.22
2022-08-14T08:06:31.624Z,98973.81
2022-08-14T08:07:35.697Z,98976.27
2022-08-14T08:08:38.211Z,98975.80
2022-08-14T08:09:40.720Z,98974.83
2022-08-14T08:10:46.951Z,98973.80
2022-08-14T08:11:47.379Z,98969.60
2022-08-14T08:12:51.380Z,98970.59
2022-08-14T08:13:55.323Z,98976.52
2022-08-14T08:15:03.345Z,98969.74
2022-08-14T08:16:01.692Z,98972.45
2022-08-14T08:17:04.203Z,98966.97
2022-08-14T08:18:08.311Z,98961.65
2022-08-14T08:19:12.947Z,98958.61
2022-08-14T08:20:13.177Z,98960.89
2022-08-14T08:21:17.971Z,98962.06
2022-08-14T08:22:19.578Z,98958.84
2022-08-14T08:23:22.060Z,98958.08
2022-08-14T08:24:26.184Z,98959.67
2022-08-14T08:25:28.560Z,98956.89
2022-08-14T08:26:31.071Z,98958.69
2022-08-14T08:27:33.568Z,98956.67
2022-08-14T08:28:37.667Z,98957.88
2022-08-14T08:29:41.645Z,98961.61
2022-08-14T08:30:49.716Z,98963.63
2022-08-14T08:31:51.055Z,98966.67
2022-08-14T08:32:51.976Z,98966.29
2022-08-14T08:33:56.053Z,98964.45
2022-08-14T08:34:58.431Z,98967.70
2022-08-14T08:36:02.503Z,98963.76
2022-08-14T08:37:07.052Z,98966.67
2022-08-14T08:38:14.006Z,98960.97
2022-08-14T08:39:14.273Z,98960.32
2022-08-14T08:40:20.698Z,98963.45
2022-08-14T08:41:17.936Z,98958.87
2022-08-14T08:42:24.143Z,98960.02
2022-08-14T08:43:22.856Z,98959.89
2022-08-14T08:44:31.506Z,98958.81
2022-08-14T08:45:27.954Z,98961.34
2022-08-14T08:46:30.411Z,98962.56
2022-08-14T08:47:34.489Z,98961.58
2022-08-14T08:48:40.449Z,98955.77
2022-08-14T08:49:42.271Z,98954.27
2022-08-14T08:50:41.998Z,98960.19
2022-08-14T08:51:46.049Z,98957.21
2022-08-14T08:52:51.271Z,98958.36
2022-08-14T08:53:52.470Z,98955.69
2022-08-14T08:54:54.953Z,98956.06
2022-08-14T08:55:59.089Z,98954.55
2022-08-14T08:57:02.475Z,98956.52
2022-08-14T08:58:05.631Z,98955.22
2022-08-14T08:59:07.983Z,98947.17
2022-08-14T09:00:24.856Z,98949.09
2022-08-14T09:01:14.493Z,98949.03
2022-08-14T09:02:16.954Z,98951.59
2022-08-14T09:03:21.087Z,98949.39
2022-08-14T09:04:23.456Z,98949.53
2022-08-14T09:05:27.527Z,98947.67
2022-08-14T09:06:53.799Z,98945.03
2022-08-14T09:07:34.035Z,98946.61
2022-08-14T09:08:37.001Z,98942.02
2022-08-14T09:09:53.773Z,98942.30
2022-08-14T09:10:42.869Z,98940.01
2022-08-14T09:11:45.321Z,98942.31
2022-08-14T09:12:51.452Z,98941.82
2022-08-14T09:22:33.152Z,98932.92
2022-08-14T09:23:27.551Z,98931.28
2022-08-14T09:24:32.533Z,98927.72
2022-08-14T09:25:58.699Z,98925.84
2022-08-14T09:26:34.119Z,98924.19
2022-08-14T09:27:38.259Z,98930.36
2022-08-14T09:28:40.586Z,98928.70
2022-08-14T09:29:43.063Z,98931.08
2022-08-14T09:30:45.590Z,98928.61
2022-08-14T09:31:53.091Z,98926.95
2022-08-14T09:32:58.477Z,98928.27
2022-08-14T09:33:56.809Z,98924.41
2022-08-14T09:34:59.533Z,98922.96
2022-08-14T09:36:01.021Z,98919.78
2022-08-14T09:37:03.487Z,98916.98
2022-08-14T09:38:06.333Z,98914.67
2022-08-14T09:39:14.841Z,98912.84
2022-08-14T09:40:16.838Z,98912.70
2022-08-14T09:41:15.130Z,98911.40
2022-08-14T09:42:20.873Z,98911.14
2022-08-14T09:43:22.520Z,98911.73
2022-08-14T09:44:25.820Z,98910.14
2022-08-14T09:45:30.320Z,98909.72
2022-08-14T09:46:32.162Z,98910.89
2022-08-14T09:47:36.245Z,98912.80
2022-08-14T09:48:38.724Z,98911.67
2022-08-14T09:49:41.190Z,98913.16
2022-08-14T09:50:43.729Z,98913.75
2022-08-14T09:51:51.706Z,98911.16
2022-08-14T09:52:52.789Z,98911.33
2022-08-14T09:54:13.354Z,98914.59
2022-08-14T09:54:55.801Z,98912.06
2022-08-14T09:55:59.742Z,98907.08
2022-08-14T09:57:02.179Z,98905.88
2022-08-14T09:58:06.250Z,98909.10
2022-08-14T09:59:08.799Z,98905.34
2022-08-14T10:00:27.215Z,98903.63
2022-08-14T10:01:16.796Z,98901.30
2022-08-14T10:10:48.841Z,98891.36
2022-08-14T10:11:52.480Z,98888.30
2022-08-14T10:12:58.239Z,98891.38
2022-08-14T10:13:57.317Z,98884.05
2022-08-14T10:14:59.980Z,98890.08
2022-08-14T10:16:04.039Z,98888.05
2022-08-14T10:17:06.925Z,98891.14
2022-08-14T10:18:08.955Z,98887.09
2022-08-14T10:19:13.100Z,98890.63
2022-08-14T10:20:39.295Z,98896.23
2022-08-14T10:21:22.559Z,98890.16
2022-08-14T10:23:11.608Z,98887.80
2022-08-14T10:23:26.475Z,98886.22
2022-08-14T10:24:31.098Z,98893.45
2022-08-14T10:25:32.588Z,98892.27
2022-08-14T10:26:34.921Z,98896.73
2022-08-14T10:27:37.443Z,98891.61
2022-08-14T10:29:04.052Z,98891.52
2022-08-14T10:29:44.079Z,98885.81
2022-08-14T10:30:48.029Z,98887.14
2022-08-14T10:31:50.391Z,98889.86
2022-08-14T10:32:55.582Z,98888.33
2022-08-14T10:33:56.882Z,98887.08
2022-08-14T10:35:01.000Z,98885.89
2022-08-14T10:36:03.826Z,98886.45
2022-08-14T10:37:08.737Z,98886.09
2022-08-14T10:38:09.860Z,98887.84
2022-08-14T10:39:14.006Z,98891.88
2022-08-14T10:40:37.141Z,98893.74
2022-08-14T10:41:19.042Z,98895.20
2022-08-14T10:42:21.456Z,98891.34
2022-08-14T10:43:24.118Z,98890.27
2022-08-14T10:44:29.628Z,98877.80
2022-08-14T10:45:28.951Z,98874.95
2022-08-14T10:47:35.910Z,98876.07
2022-08-14T10:47:38.208Z,98873.89
2022-08-14T10:48:42.118Z,98873.11
2022-08-14T10:49:39.958Z,98873.53
2022-08-14T10:50:42.626Z,98867.17
2022-08-14T10:51:45.013Z,98865.22
2022-08-14T10:52:47.716Z,98865.33
2022-08-14T10:53:53.170Z,98862.08
2022-08-14T10:54:56.262Z,98852.32
2022-08-14T10:55:55.061Z,98845.00
2022-08-14T10:56:57.736Z,98839.73
2022-08-14T10:58:00.207Z,98836.16
2022-08-14T10:59:02.756Z,98837.20
2022-08-14T11:00:05.252Z,98835.64
2022-08-14T11:01:09.422Z,98833.02
2022-08-14T11:02:11.778Z,98831.66
2022-08-14T11:03:15.734Z,98838.55
2022-08-14T11:04:16.883Z,98835.57
2022-08-14T11:05:19.425Z,98834.53
2022-08-14T11:06:21.904Z,98827.65
2022-08-14T11:07:26.154Z,98826.02
2022-08-14T11:08:28.469Z,98820.13
2022-08-14T11:18:02.035Z,98805.87
2022-08-14T11:19:04.659Z,98804.29
2022-08-14T11:20:07.249Z,98800.91
2022-08-14T11:21:11.383Z,98803.25
2022-08-14T11:22:15.453Z,98799.57
2022-08-14T11:23:16.483Z,98806.39
2022-08-14T11:24:50.224Z,98800.64
2022-08-14T11:25:23.253Z,98809.05
2022-08-14T11:26:25.680Z,98810.02
2022-08-14T11:27:33.008Z,98802.08
2022-08-14T11:28:46.504Z,98803.48
2022-08-14T11:29:35.277Z,98805.49
2022-08-14T11:30:48.870Z,98807.42
2022-08-14T11:31:39.901Z,98804.38
2022-08-14T11:32:44.135Z,98802.02
2022-08-14T11:33:48.271Z,98800.86
2022-08-14T11:34:50.648Z,98794.23
2022-08-14T11:35:53.671Z,98801.23
2022-08-14T11:37:02.367Z,98795.95
2022-08-14T11:37:58.352Z,98794.77
2022-08-14T11:39:00.976Z,98794.70
2022-08-14T11:40:03.523Z,98792.84
2022-08-14T11:41:07.641Z,98789.62
2022-08-14T11:42:57.535Z,98791.63
2022-08-14T11:43:14.765Z,98790.73
2022-08-14T11:44:17.717Z,98790.83
2022-08-14T11:45:23.081Z,98784.61
2022-08-14T11:46:29.995Z,98786.00
2022-08-14T11:47:25.754Z,98786.24
2022-08-14T11:48:59.431Z,98786.72
2022-08-14T11:49:34.078Z,98792.95
2022-08-14T11:50:37.554Z,98793.94
2022-08-14T11:51:50.953Z,98798.65
2022-08-14T11:52:40.176Z,98799.20
2022-08-14T11:53:42.465Z,98796.58
2022-08-14T11:54:45.008Z,98799.59
2022-08-14T11:55:47.528Z,98799.16
2022-08-14T11:56:50.700Z,98800.98
2022-08-14T11:57:57.643Z,98797.34
2022-08-14T11:58:55.185Z,98791.34
2022-08-14T11:59:57.750Z,98792.98
2022-08-14T12:01:00.311Z,98791.27
2022-08-14T12:02:02.893Z,98791.08
2022-08-14T12:03:05.750Z,98785.64
2022-08-14T12:04:07.958Z,98778.94
2022-08-14T12:05:13.478Z,98780.50
2022-08-14T12:06:28.314Z,98777.87
2022-08-14T12:07:18.244Z,98781.38
2022-08-14T12:08:24.375Z,98782.88
2022-08-14T12:09:23.296Z,98788.11
2022-08-14T12:10:26.486Z,98784.25
2022-08-14T12:11:28.303Z,98784.02
2022-08-14T12:12:35.449Z,98790.65
2022-08-14T12:13:34.865Z,98780.84
2022-08-14T12:14:38.874Z,98786.55
2022-08-14T12:15:44.652Z,98780.33
2022-08-14T12:16:46.766Z,98780.16
2022-08-14T12:17:49.531Z,98779.91
2022-08-14T12:18:51.617Z,98777.63
2022-08-14T12:19:56.402Z,98775.22
2022-08-14T12:20:59.470Z,98769.23
2022-08-14T12:22:00.633Z,98770.52
2022-08-14T12:23:05.286Z,98771.33
2022-08-14T12:24:05.791Z,98770.13
2022-08-14T12:25:10.828Z,98769.57
2022-08-14T12:26:12.090Z,98769.25
2022-08-14T12:27:13.579Z,98764.88
2022-08-14T12:28:26.861Z,98764.01
2022-08-14T12:29:20.309Z,98759.30
2022-08-14T12:30:22.714Z,98758.79
2022-08-14T12:31:26.754Z,98759.46
2022-08-14T12:32:29.150Z,98755.22
2022-08-14T12:33:33.092Z,98756.26
2022-08-14T12:34:34.241Z,98755.05
2022-08-14T12:35:36.754Z,98752.61
2022-08-14T12:36:39.251Z,98747.17
2022-08-14T12:37:43.404Z,98744.04
2022-08-14T12:38:45.807Z,98742.80
2022-08-14T12:39:48.364Z,98746.46
2022-08-14T12:40:50.893Z,98744.13
2022-08-14T12:41:53.676Z,98734.75
2022-08-14T12:42:57.598Z,98731.30
2022-08-14T12:44:02.981Z,98731.44
2022-08-14T12:45:07.104Z,98724.11
2022-08-14T12:46:11.638Z,98726.70
2022-08-14T12:47:13.156Z,98724.39
2022-08-14T12:48:20.962Z,98722.20
2022-08-14T12:49:18.750Z,98719.96
2022-08-14T12:50:21.278Z,98720.55
2022-08-14T12:51:25.281Z,98722.56
2022-08-14T12:52:30.826Z,98716.91
2022-08-14T12:53:31.943Z,98713.34
2022-08-14T12:54:34.295Z,98706.66
2022-08-14T12:56:00.632Z,98705.88
2022-08-14T12:56:39.481Z,98708.13
2022-08-14T12:57:41.923Z,98703.67
2022-08-14T12:58:51.697Z,98709.89
2022-08-14T12:59:47.012Z,98701.88
2022-08-14T13:01:05.612Z,98695.41
2022-08-14T13:01:59.240Z,98696.00
2022-08-14T13:02:54.823Z,98696.94
2022-08-14T13:03:57.110Z,98697.03
2022-08-14T13:04:59.629Z,98694.13
2022-08-14T13:06:02.198Z,98695.16
2022-08-14T13:07:06.428Z,98695.53
2022-08-14T13:08:10.760Z,98689.75
2022-08-14T13:09:11.718Z,98690.48
2022-08-14T13:10:46.460Z,98690.81
2022-08-14T13:11:18.003Z,98689.36
2022-08-14T13:12:31.495Z,98692.89
2022-08-14T13:13:23.514Z,98688.59
2022-08-14T13:14:29.721Z,98689.52
2022-08-14T13:15:29.861Z,98678.89
2022-08-14T13:16:33.917Z,98681.62
2022-08-14T13:17:38.023Z,98678.91
2022-08-14T13:18:40.370Z,98679.28
2022-08-14T13:19:44.436Z,98676.56
2022-08-14T13:20:51.871Z,98673.39
2022-08-14T13:30:21.467Z,98667.08
2022-08-14T13:31:23.941Z,98666.50
2022-08-14T13:32:26.015Z,98660.31
2022-08-14T13:33:28.613Z,98652.92
2022-08-14T13:34:31.554Z,98656.55
2022-08-14T13:35:33.692Z,98656.77
2022-08-14T13:36:52.108Z,98657.39
2022-08-14T13:37:38.784Z,98654.56
2022-08-14T13:38:41.419Z,98653.78
2022-08-14T13:39:43.862Z,98649.64
2022-08-14T13:40:48.001Z,98651.20
2022-08-14T13:41:55.501Z,98654.17
2022-08-14T13:42:54.571Z,98654.56
2022-08-14T13:43:59.405Z,98652.61
2022-08-14T13:44:59.618Z,98651.36
2022-08-14T13:46:02.034Z,98646.09
2022-08-14T13:47:04.591Z,98645.64
2022-08-14T13:48:10.115Z,98640.64
2022-08-14T13:49:12.406Z,98642.63
2022-08-14T13:50:14.914Z,98638.63
2022-08-14T13:51:17.425Z,98637.39
2022-08-14T13:52:48.669Z,98633.38
2022-08-14T13:53:22.589Z,98630.23
2022-08-14T13:54:25.140Z,98629.92
2022-08-14T13:55:29.251Z,98631.38
2022-08-14T13:56:36.930Z,98635.53
2022-08-14T13:57:34.295Z,98632.17
2022-08-14T13:58:36.825Z,98626.95
2022-08-14T13:59:40.960Z,98625.20
2022-08-14T14:00:51.967Z,98625.56
2022-08-14T14:01:51.580Z,98625.97
2022-08-14T14:02:52.064Z,98620.83
2022-08-14T14:03:55.483Z,98624.08
2022-08-14T14:04:57.859Z,98619.58
2022-08-14T14:06:00.437Z,98618.59
2022-08-14T14:07:04.528Z,98619.28
2022-08-14T14:08:06.954Z,98619.30
2022-08-14T14:09:11.217Z,98623.55
2022-08-14T14:10:15.054Z,98616.88
2022-08-14T14:11:17.636Z,98617.51
2022-08-14T14:12:36.353Z,98618.47
2022-08-14T14:13:22.620Z,98614.61
2022-08-14T14:14:29.652Z,98608.61
2022-08-14T14:15:34.095Z,98612.00
2022-08-14T14:16:33.327Z,98605.55
2022-08-14T14:17:38.818Z,98607.33
2022-08-14T14:18:42.372Z,98605.22
2022-08-14T14:19:42.203Z,98605.34
2022-08-14T14:20:44.726Z,98605.30
2022-08-14T14:21:47.245Z,98602.55
2022-08-14T14:23:02.074Z,98601.47
2022-08-14T14:23:52.317Z,98600.58
2022-08-14T14:24:56.435Z,98601.18
2022-08-14T14:26:00.433Z,98596.63
2022-08-14T14:27:23.859Z,98601.45
2022-08-14T14:28:06.787Z,98596.59
2022-08-14T14:29:09.259Z,98594.91
2022-08-14T14:30:15.039Z,98594.91
2022-08-14T14:31:14.264Z,98594.87
2022-08-14T14:32:17.435Z,98594.92
2022-08-14T14:33:44.369Z,98594.44
2022-08-14T14:34:29.882Z,98591.38
2022-08-14T14:35:30.099Z,98594.53
2022-08-14T14:36:34.735Z,98589.52
2022-08-14T14:37:38.529Z,98583.48
2022-08-14T14:38:40.849Z,98584.16
2022-08-14T14:40:50.258Z,98584.59
2022-08-14T14:40:51.053Z,98582.92
2022-08-14T14:41:50.017Z,98581.95
2022-08-14T14:42:53.253Z,98583.13
2022-08-14T14:43:55.059Z,98585.31
2022-08-14T14:44:57.644Z,98582.56
2022-08-14T14:46:00.152Z,98583.03
2022-08-14T14:47:04.255Z,98583.09
2022-08-14T14:48:08.364Z,98580.61
2022-08-14T14:49:10.751Z,98580.45
2022-08-14T14:50:13.210Z,98580.16
2022-08-14T14:51:15.741Z,98582.39
2022-08-14T14:52:23.577Z,98577.87
2022-08-14T14:53:20.811Z,98572.50
2022-08-14T14:54:30.025Z,98572.38
2022-08-14T14:55:28.997Z,98570.27
2022-08-14T14:56:48.479Z,98575.27
2022-08-14T14:57:35.462Z,98577.64
2022-08-14T14:58:36.464Z,98575.38
2022-08-14T14:59:38.945Z,98574.45
2022-08-14T15:00:43.072Z,98574.54
2022-08-14T15:01:47.228Z,98571.31
2022-08-14T15:02:49.688Z,98568.69
2022-08-14T15:03:53.639Z,98571.97
2022-08-14T15:04:57.767Z,98571.22
2022-08-14T15:06:01.705Z,98569.25
2022-08-14T15:07:04.152Z,98570.06
2022-08-14T15:08:06.683Z,98566.44
2022-08-14T15:09:09.221Z,98564.23
2022-08-14T15:10:26.642Z,98562.27
2022-08-14T15:11:15.720Z,98562.91
2022-08-14T15:12:34.877Z,98562.84
2022-08-14T15:13:20.789Z,98561.81
2022-08-14T15:14:54.317Z,98560.62
2022-08-14T15:15:25.892Z,98557.13
2022-08-14T15:16:28.392Z,98558.38
2022-08-14T15:17:35.153Z,98560.05
2022-08-14T15:18:36.462Z,98559.88
2022-08-14T15:19:37.685Z,98564.13
2022-08-14T15:20:39.981Z,98562.42
2022-08-14T15:21:42.454Z,98558.65
2022-08-14T15:22:51.126Z,98555.63
2022-08-14T15:23:50.672Z,98557.19
2022-08-14T15:24:54.602Z,98556.73
2022-08-14T15:25:56.964Z,98550.30
2022-08-14T15:26:59.509Z,98552.23
2022-08-14T15:28:02.037Z,98551.38
2022-08-14T15:29:06.460Z,98553.80
2022-08-14T15:30:08.518Z,98551.55
2022-08-14T15:31:15.966Z,98552.44
2022-08-14T15:32:22.518Z,98548.94
2022-08-14T15:33:20.686Z,98547.71
2022-08-14T15:34:33.693Z,98547.96
2022-08-14T15:35:28.031Z,98550.52
2022-08-14T15:36:31.331Z,98547.09
2022-08-14T15:37:35.336Z,98549.14
2022-08-14T15:38:41.122Z,98547.14
2022-08-14T15:39:41.798Z,98545.34
2022-08-14T15:40:44.159Z,98541.75
2022-08-14T15:41:46.716Z,98538.53
2022-08-14T15:42:50.791Z,98538.55
2022-08-14T15:43:56.736Z,98536.41
2022-08-14T15:44:59.454Z,98539.70
2022-08-14T15:45:59.706Z,98539.06
2022-08-14T15:47:02.238Z,98543.58
2022-08-14T15:48:06.342Z,98536.39
2022-08-14T15:49:08.789Z,98538.16
2022-08-14T15:50:13.313Z,98538.20
2022-08-14T15:51:15.500Z,98535.32
2022-08-14T15:52:32.348Z,98537.67
2022-08-14T15:53:23.574Z,98534.14
2022-08-14T15:54:31.132Z,98535.80
2022-08-14T15:55:31.536Z,98539.06
2022-08-14T15:56:42.665Z,98535.06
2022-08-14T15:57:36.426Z,98539.63
2022-08-14T15:58:38.907Z,98533.80
2022-08-14T15:59:43.016Z,98537.80
2022-08-14T16:00:49.311Z,98538.14
2022-08-14T16:01:54.401Z,98532.95
2022-08-14T16:02:51.956Z,98530.04
2022-08-14T16:03:55.430Z,98529.55
2022-08-14T16:04:59.452Z,98528.00
2022-08-14T16:06:01.859Z,98525.27
2022-08-14T16:07:04.405Z,98531.55
2022-08-14T16:08:06.946Z,98523.99
2022-08-14T16:09:11.184Z,98528.50
2022-08-14T16:10:28.754Z,98526.92
2022-08-14T16:11:14.570Z,98532.89
2022-08-14T16:12:19.176Z,98532.45
2022-08-14T16:13:39.104Z,98532.41
2022-08-14T16:14:25.043Z,98528.91
2022-08-14T16:15:27.520Z,98528.53
2022-08-14T16:16:34.279Z,98524.02
2022-08-14T16:17:33.969Z,98520.58
2022-08-14T16:18:36.494Z,98524.67
2022-08-14T16:19:44.056Z,98521.79
2022-08-14T16:20:44.284Z,98524.41
2022-08-14T16:21:58.552Z,98525.17
2022-08-14T16:23:08.826Z,98523.34
2022-08-14T16:23:53.027Z,98528.80
2022-08-14T16:24:57.859Z,98527.43
2022-08-14T16:25:55.592Z,98525.33
2022-08-14T16:27:00.497Z,98523.45
2022-08-14T16:28:02.318Z,98523.34
2022-08-14T16:29:04.659Z,98519.55
2022-08-14T16:30:10.780Z,98521.34
2022-08-14T16:31:13.037Z,98516.65
2022-08-14T16:32:32.388Z,98517.30
2022-08-14T16:33:27.722Z,98515.81
2022-08-14T16:34:22.880Z,98519.71
2022-08-14T16:35:26.379Z,98516.61
2022-08-14T16:36:30.255Z,98515.49
2022-08-14T16:37:34.065Z,98514.02
2022-08-14T16:39:39.163Z,98515.83
2022-08-14T16:40:26.171Z,98515.03
2022-08-14T16:40:43.679Z,98513.03
2022-08-14T16:41:51.109Z,98511.80
2022-08-14T16:43:03.822Z,98512.59
2022-08-14T16:43:50.539Z,98511.84
2022-08-14T16:44:53.038Z,98509.61
2022-08-14T16:45:55.524Z,98509.06
2022-08-14T16:46:59.682Z,98509.27
2022-08-14T16:48:02.076Z,98510.38
2022-08-14T16:49:04.622Z,98504.53
2022-08-14T16:50:09.344Z,98502.59
2022-08-14T16:51:11.130Z,98499.11
2022-08-14T16:52:25.296Z,98496.97
2022-08-14T16:53:17.721Z,98496.03
2022-08-14T16:54:21.284Z,98493.69
2022-08-14T16:55:22.610Z,98492.47
2022-08-14T16:56:28.083Z,98488.83
2022-08-14T16:57:31.732Z,98491.63
2022-08-14T16:58:34.691Z,98494.59
2022-08-14T16:59:52.140Z,98492.98
2022-08-14T17:00:43.323Z,98488.63
2022-08-14T17:01:43.583Z,98490.17
2022-08-14T17:02:46.216Z,98489.55
2022-08-14T17:03:48.591Z,98487.66
2022-08-14T17:04:51.139Z,98489.20
2022-08-14T17:05:53.689Z,98490.16
2022-08-14T17:06:56.224Z,98488.50
2022-08-14T17:16:28.709Z,98486.59
2022-08-14T17:17:31.301Z,98487.17
2022-08-14T17:18:35.476Z,98490.47
2022-08-14T17:19:39.482Z,98487.50
2022-08-14T17:20:53.993Z,98485.02
2022-08-14T17:21:47.183Z,98487.11
2022-08-14T17:22:48.472Z,98484.27
2022-08-14T17:23:51.037Z,98484.27
2022-08-14T17:24:58.555Z,98486.16
2022-08-14T17:25:56.038Z,98484.44
2022-08-14T17:26:59.808Z,98481.31
2022-08-14T17:28:02.697Z,98479.57
2022-08-14T17:29:06.655Z,98480.24
2022-08-14T17:30:32.117Z,98482.34
2022-08-14T17:31:12.036Z,98477.06
2022-08-14T17:32:19.337Z,98479.84
2022-08-14T17:33:16.529Z,98476.23
2022-08-14T17:34:19.096Z,98473.50
2022-08-14T17:35:21.643Z,98474.14
2022-08-14T17:36:25.770Z,98472.44
2022-08-14T17:37:28.165Z,98472.70
2022-08-14T17:38:33.775Z,98475.20
2022-08-14T17:39:39.806Z,98473.11
2022-08-14T17:40:37.173Z,98477.09
2022-08-14T17:41:43.551Z,98468.71
2022-08-14T17:42:43.927Z,98471.63
2022-08-14T17:43:54.869Z,98473.70
2022-08-14T17:44:50.281Z,98469.36
2022-08-14T17:45:52.976Z,98470.20
2022-08-14T17:46:57.064Z,98469.61
2022-08-14T17:47:59.101Z,98466.35
2022-08-14T17:49:10.273Z,98473.89
2022-08-14T17:50:55.042Z,98475.88
2022-08-14T17:51:08.586Z,98477.44
2022-08-14T17:52:17.751Z,98474.30
2022-08-14T17:53:14.928Z,98476.73
2022-08-14T17:54:22.431Z,98476.00
2022-08-14T17:56:00.737Z,98480.93
2022-08-14T17:56:25.502Z,98477.41
2022-08-14T17:57:28.337Z,98473.52
2022-08-14T17:58:30.379Z,98475.57
2022-08-14T17:59:32.872Z,98475.03
2022-08-14T18:00:37.056Z,98479.09
2022-08-14T18:01:39.520Z,98474.64
2022-08-14T18:02:50.327Z,98471.84
2022-08-14T18:03:44.661Z,98475.15
2022-08-14T18:04:46.971Z,98474.16
2022-08-14T18:06:07.980Z,98472.23
2022-08-14T18:06:57.178Z,98471.70
2022-08-14T18:08:00.572Z,98470.09
2022-08-14T18:08:57.000Z,98470.77
2022-08-14T18:10:32.092Z,98470.86
2022-08-14T18:11:03.516Z,98472.05
2022-08-14T18:12:05.927Z,98468.16
2022-08-14T18:13:10.512Z,98469.08
2022-08-14T18:14:20.709Z,98468.72
2022-08-14T18:15:17.554Z,98471.47
2022-08-14T18:16:21.995Z,98466.24
2022-08-14T18:17:23.032Z,98469.61
2022-08-14T18:18:26.968Z,98467.38
2022-08-14T18:19:29.330Z,98469.41
2022-08-14T18:21:25.018Z,98472.58
2022-08-14T18:21:43.183Z,98473.70
2022-08-14T18:22:39.425Z,98470.61
2022-08-14T18:23:42.018Z,98471.88
2022-08-14T18:24:44.848Z,98473.98
2022-08-14T18:25:47.189Z,98475.45
2022-08-14T18:26:51.277Z,98476.98
2022-08-14T18:27:57.230Z,98476.27
2022-08-14T18:28:56.128Z,98473.41
2022-08-14T18:38:43.085Z,98469.89
2022-08-14T18:39:30.397Z,98474.75
2022-08-14T18:40:34.625Z,98472.90
2022-08-14T18:50:19.170Z,98472.08
2022-08-14T18:51:08.513Z,98473.92
2022-08-14T19:00:41.774Z,98485.80
2022-08-14T19:10:16.720Z,98483.77
2022-08-14T19:19:50.970Z,98476.08
2022-08-14T19:29:23.927Z,98471.11
2022-08-14T19:38:59.785Z,98468.52
2022-08-14T19:48:33.944Z,98474.11
2022-08-14T19:58:08.380Z,98478.54
2022-08-14T20:07:56.339Z,98489.15
2022-08-14T20:17:16.156Z,98476.59
2022-08-14T20:26:50.436Z,98481.95
2022-08-14T20:36:25.906Z,98493.03
2022-08-14T20:45:59.834Z,98495.09
2022-08-14T20:55:34.539Z,98488.67
2022-08-14T21:05:16.052Z,98490.63
2022-08-14T21:14:46.561Z,98489.26
2022-08-14T21:24:22.911Z,98484.73
2022-08-14T21:33:56.297Z,98482.98
2022-08-14T21:43:25.250Z,98479.36
2022-08-14T21:53:03.467Z,98481.26
2022-08-14T22:02:34.693Z,98479.89
2022-08-14T22:12:09.227Z,98480.78
2022-08-14T22:21:44.294Z,98485.56
2022-08-14T22:31:22.274Z,98492.95
2022-08-14T22:41:02.419Z,98501.30
2022-08-14T22:50:33.239Z,98488.77
2022-08-14T23:00:05.069Z,98470.00
2022-08-14T23:09:38.549Z,98462.06
2022-08-14T23:10:40.282Z,98466.16
2022-08-14T23:20:18.438Z,98463.86
2022-08-14T23:29:47.930Z,98465.70
2022-08-14T23:39:24.435Z,98460.38
2022-08-14T23:48:59.117Z,98473.09
2022-08-14T23:58:32.014Z,98463.47
